Time;durP1;ratioP1;P1;durP2;ratioP2;P2;SDS_P1;SDS_P2;PMS_P1;PMS_P2;Temp;Humidity;BMP_temperature;BMP_pressure;BME280_temperature;BME280_humidity;BME280_pressure;Samples;Min_cycle;Max_cycle;Signal;HPM_P1;HPM_P2
2022/01/18 00:01:07;;;;;;;;;;;6.20;68.80;;;;;;5077477;28;19961;-63
2022/01/18 00:03:33;;;;;;;;;;;6.60;61.70;;;;;;5076972;28;19908;-64
2022/01/18 00:06:00;;;;;;;;;;;6.60;63.10;;;;;;5077331;28;19936;-64
2022/01/18 00:08:25;;;;;;;;;;;6.60;64.80;;;;;;5077155;28;20013;-62
2022/01/18 00:10:51;;;;;;;;;;;6.40;64.20;;;;;;5077025;28;19940;-64
2022/01/18 00:18:27;;;;;;;;;;;6.30;64.60;;;;;;5076914;28;19908;-64
2022/01/18 00:21:22;;;;;;;;;;;6.30;65.40;;;;;;5076695;28;19915;-63
2022/01/18 00:23:39;;;;;;;;;;;6.20;65.50;;;;;;5076261;28;19912;-64
2022/01/18 00:26:06;;;;;;;;;;;6.30;64.10;;;;;;5076759;28;19947;-62
2022/01/18 00:28:32;;;;;;;;;;;6.50;62.10;;;;;;5076894;28;19972;-65
2022/01/18 00:33:37;;;;;;;;;;;6.70;60.10;;;;;;5076351;28;19923;-63
2022/01/18 00:36:04;;;;;;;;;;;6.90;58.30;;;;;;5076616;28;19912;-64
2022/01/18 00:38:33;;;;;;;;;;;7.00;57.10;;;;;;5076747;28;19913;-64
2022/01/18 00:40:59;;;;;;;;;;;7.10;57.60;;;;;;5076429;28;19932;-64
2022/01/18 00:43:25;;;;;;;;;;;7.20;54.80;;;;;;5076294;28;19908;-63
2022/01/18 00:45:51;;;;;;;;;;;7.70;52.70;;;;;;5076308;28;19908;-64
2022/01/18 00:48:17;;;;;;;;;;;7.80;53.20;;;;;;5076014;28;19943;-63
2022/01/18 00:50:43;;;;;;;;;;;7.70;55.70;;;;;;5076455;28;19909;-63
2022/01/18 00:53:12;;;;;;;;;;;7.40;56.20;;;;;;5076326;28;19947;-63
2022/01/18 00:55:50;;;;;;;;;;;7.50;55.40;;;;;;5075973;28;19923;-64
2022/01/18 00:58:15;;;;;;;;;;;7.40;56.40;;;;;;5075819;28;20014;-65
2022/01/18 01:00:41;;;;;;;;;;;7.30;57.00;;;;;;5076309;28;20052;-63
2022/01/18 01:03:07;;;;;;;;;;;7.40;55.30;;;;;;5076163;28;20368;-64
2022/01/18 01:05:32;;;;;;;;;;;7.30;56.00;;;;;;5075974;28;19909;-64
2022/01/18 01:07:58;;;;;;;;;;;7.20;57.00;;;;;;5074876;28;19915;-63
2022/01/18 01:10:23;;;;;;;;;;;7.20;57.40;;;;;;5075424;28;20364;-63
2022/01/18 01:12:50;;;;;;;;;;;7.00;58.20;;;;;;5075762;28;19931;-64
2022/01/18 01:15:18;;;;;;;;;;;7.10;53.70;;;;;;5075982;28;20303;-63
2022/01/18 01:46:41;;;;;;;;;;;8.70;45.80;;;;;;5075754;28;20325;-62
2022/01/18 01:49:12;;;;;;;;;;;8.60;47.00;;;;;;5075079;28;19908;-63
2022/01/18 01:51:38;;;;;;;;;;;8.40;48.30;;;;;;5074705;28;19917;-62
2022/01/18 01:54:05;;;;;;;;;;;8.30;48.70;;;;;;5075120;28;19935;-63
2022/01/18 01:56:31;;;;;;;;;;;8.40;48.60;;;;;;5074750;28;20005;-63
2022/01/18 01:58:57;;;;;;;;;;;8.40;48.20;;;;;;5074875;28;20005;-62
2022/01/18 02:01:23;;;;;;;;;;;8.30;48.20;;;;;;5074820;28;19909;-64
2022/01/18 02:03:48;;;;;;;;;;;8.20;48.10;;;;;;5074845;28;19914;-64
2022/01/18 02:06:14;;;;;;;;;;;8.60;46.00;;;;;;5074852;28;20021;-64
2022/01/18 02:08:41;;;;;;;;;;;8.60;47.30;;;;;;5074592;28;19915;-64
2022/01/18 02:11:06;;;;;;;;;;;8.40;48.30;;;;;;5074596;28;19961;-64
2022/01/18 02:13:33;;;;;;;;;;;8.40;48.20;;;;;;5074622;28;21675;-63
2022/01/18 02:23:56;;;;;;;;;;;8.70;45.80;;;;;;5073147;28;19915;-64
2022/01/18 02:26:22;;;;;;;;;;;8.80;45.00;;;;;;5074302;28;19919;-62
2022/01/18 02:28:47;;;;;;;;;;;9.00;43.60;;;;;;5074300;28;19913;-64
2022/01/18 02:31:13;;;;;;;;;;;9.30;41.90;;;;;;5074061;28;20280;-63
2022/01/18 02:33:38;;;;;;;;;;;9.50;42.50;;;;;;5074213;28;19920;-64
2022/01/18 02:36:08;;;;;;;;;;;9.30;43.40;;;;;;5073979;28;20253;-64
2022/01/18 02:38:33;;;;;;;;;;;9.30;43.10;;;;;;5074097;28;19917;-63
2022/01/18 02:40:59;;;;;;;;;;;9.40;41.70;;;;;;5074045;28;19908;-64
2022/01/18 02:46:10;;;;;;;;;;;9.70;40.80;;;;;;5074198;28;19914;-63
2022/01/18 02:48:35;;;;;;;;;;;9.80;40.70;;;;;;5073782;28;19912;-63
2022/01/18 02:51:01;;;;;;;;;;;9.70;40.80;;;;;;5073959;28;20333;-63
2022/01/18 02:53:26;;;;;;;;;;;9.70;40.70;;;;;;5073623;28;19913;-64
2022/01/18 02:55:53;;;;;;;;;;;9.70;40.70;;;;;;5073746;28;19908;-63
2022/01/18 02:58:31;;;;;;;;;;;9.70;40.50;;;;;;5073820;28;20018;-64
2022/01/18 03:03:25;;;;;;;;;;;9.70;40.80;;;;;;5073628;28;19909;-64
2022/01/18 03:05:51;;;;;;;;;;;9.70;40.40;;;;;;5073321;28;19934;-63
2022/01/18 03:08:17;;;;;;;;;;;9.80;40.30;;;;;;5073649;28;19909;-62
2022/01/18 03:10:43;;;;;;;;;;;9.80;40.10;;;;;;5073312;28;20372;-63
2022/01/18 03:13:09;;;;;;;;;;;9.80;40.40;;;;;;5073547;28;19940;-63
2022/01/18 03:15:35;;;;;;;;;;;9.80;40.10;;;;;;5073396;28;19916;-63
2022/01/18 03:18:02;;;;;;;;;;;9.70;41.20;;;;;;5073034;28;19916;-63
2022/01/18 03:20:28;;;;;;;;;;;9.50;42.30;;;;;;5073708;28;19923;-64
2022/01/18 03:22:53;;;;;;;;;;;9.50;41.10;;;;;;5073146;28;20006;-62
2022/01/18 03:25:39;;;;;;;;;;;9.60;40.60;;;;;;5073317;28;19988;-64
2022/01/18 03:28:06;;;;;;;;;;;9.70;40.70;;;;;;5073153;28;20261;-65
2022/01/18 03:30:37;;;;;;;;;;;9.70;40.40;;;;;;5073083;28;19916;-63
2022/01/18 03:33:04;;;;;;;;;;;9.80;40.20;;;;;;5072918;28;19924;-63
2022/01/18 03:35:29;;;;;;;;;;;9.90;39.60;;;;;;5072844;28;19953;-62
2022/01/18 03:37:55;;;;;;;;;;;9.90;39.50;;;;;;5072004;28;20007;-63
2022/01/18 03:40:20;;;;;;;;;;;9.90;40.00;;;;;;5073039;28;19916;-63
2022/01/18 03:42:47;;;;;;;;;;;9.80;40.00;;;;;;5073225;28;19919;-64
2022/01/18 03:45:21;;;;;;;;;;;9.70;40.40;;;;;;5073099;28;19960;-65
2022/01/18 03:47:47;;;;;;;;;;;9.70;40.30;;;;;;5073115;28;19915;-63
2022/01/18 03:50:13;;;;;;;;;;;9.70;40.80;;;;;;5072947;28;19909;-65
2022/01/18 03:52:40;;;;;;;;;;;9.60;42.70;;;;;;5073009;28;19959;-62
2022/01/18 03:55:06;;;;;;;;;;;9.40;42.50;;;;;;5072963;28;19908;-64
2022/01/18 03:57:31;;;;;;;;;;;9.40;43.10;;;;;;5072793;28;19939;-62
2022/01/18 03:59:57;;;;;;;;;;;9.40;42.60;;;;;;5071703;28;19912;-64
2022/01/18 04:02:22;;;;;;;;;;;9.30;43.70;;;;;;5073126;28;19909;-64
2022/01/18 04:04:48;;;;;;;;;;;9.20;43.60;;;;;;5072615;28;19951;-63
2022/01/18 04:07:13;;;;;;;;;;;8.80;44.80;;;;;;5072961;28;19909;-63
2022/01/18 04:09:39;;;;;;;;;;;8.60;46.10;;;;;;5072768;28;19915;-63
2022/01/18 04:12:05;;;;;;;;;;;8.40;47.70;;;;;;5072880;28;20329;-62
2022/01/18 04:14:31;;;;;;;;;;;8.30;48.30;;;;;;5072761;28;19913;-63
2022/01/18 04:27:33;;;;;;;;;;;7.90;58.60;;;;;;5072931;28;19915;-63
2022/01/18 04:29:59;;;;;;;;;;;7.80;58.20;;;;;;5072958;28;19913;-64
2022/01/18 04:32:24;;;;;;;;;;;7.70;60.90;;;;;;5072490;28;20330;-63
2022/01/18 04:34:50;;;;;;;;;;;7.50;61.60;;;;;;5072663;28;19921;-63
2022/01/18 04:37:15;;;;;;;;;;;7.50;64.90;;;;;;5072396;28;19935;-64
2022/01/18 04:39:43;;;;;;;;;;;7.50;66.00;;;;;;5072739;28;19991;-65
2022/01/18 04:50:35;;;;;;;;;;;7.20;62.20;;;;;;5076441;28;20020;-65
2022/01/18 04:53:00;;;;;;;;;;;7.10;62.10;;;;;;5076558;28;19956;-64
2022/01/18 04:55:31;;;;;;;;;;;6.90;62.80;;;;;;5076273;28;20322;-63
2022/01/18 04:57:58;;;;;;;;;;;6.80;62.80;;;;;;5076321;28;19917;-63
2022/01/18 05:00:24;;;;;;;;;;;6.80;62.30;;;;;;5076339;28;19916;-63
2022/01/18 05:02:50;;;;;;;;;;;6.70;63.00;;;;;;5076058;28;19993;-64
2022/01/18 05:05:23;;;;;;;;;;;6.70;62.40;;;;;;5076238;28;20291;-63
2022/01/18 05:07:49;;;;;;;;;;;6.80;61.80;;;;;;5075829;28;20004;-64
2022/01/18 05:10:19;;;;;;;;;;;6.80;62.10;;;;;;5075787;28;19954;-64
2022/01/18 05:12:47;;;;;;;;;;;6.80;61.70;;;;;;5075778;28;19913;-64
2022/01/18 05:23:22;;;;;;;;;;;6.60;59.80;;;;;;5096294;28;20374;-63
2022/01/18 05:25:48;;;;;;;;;;;6.60;59.40;;;;;;5096147;28;19908;-62
2022/01/18 05:28:14;;;;;;;;;;;6.60;57.50;;;;;;5095719;28;19909;-63
2022/01/18 05:30:39;;;;;;;;;;;6.70;57.40;;;;;;5095735;28;20268;-62
2022/01/18 05:33:06;;;;;;;;;;;6.70;57.80;;;;;;5095703;28;19916;-61
2022/01/18 05:35:32;;;;;;;;;;;6.80;55.30;;;;;;5095342;28;19908;-62
2022/01/18 05:37:58;;;;;;;;;;;6.80;55.80;;;;;;5095508;28;19923;-63
2022/01/18 05:40:24;;;;;;;;;;;7.00;53.80;;;;;;5094189;28;19908;-63
2022/01/18 05:42:49;;;;;;;;;;;7.30;50.60;;;;;;5095637;28;19908;-63
2022/01/18 05:45:15;;;;;;;;;;;8.00;47.60;;;;;;5095495;28;19934;-64
2022/01/18 05:47:41;;;;;;;;;;;7.90;49.00;;;;;;5095168;28;19912;-63
2022/01/18 05:50:07;;;;;;;;;;;7.90;50.00;;;;;;5095262;28;20256;-64
2022/01/18 05:52:33;;;;;;;;;;;7.60;51.60;;;;;;5094935;28;19908;-64
2022/01/18 05:54:58;;;;;;;;;;;7.40;52.40;;;;;;5095182;28;19908;-63
2022/01/18 05:57:24;;;;;;;;;;;7.40;52.50;;;;;;5094823;28;19952;-62
2022/01/18 05:59:50;;;;;;;;;;;7.30;52.00;;;;;;5095120;28;19969;-62
2022/01/18 06:02:19;;;;;;;;;;;7.50;51.00;;;;;;5094996;28;19908;-62
2022/01/18 06:07:40;;;;;;;;;;;7.70;48.90;;;;;;5093079;28;19908;-64
2022/01/18 06:10:06;;;;;;;;;;;8.00;48.10;;;;;;5095064;28;20267;-63
2022/01/18 06:12:32;;;;;;;;;;;8.20;47.60;;;;;;5094788;28;20364;-64
2022/01/18 06:14:58;;;;;;;;;;;8.40;47.00;;;;;;5093016;28;20379;-63
2022/01/18 06:17:23;;;;;;;;;;;8.40;46.90;;;;;;5094553;28;19927;-63
2022/01/18 06:19:49;;;;;;;;;;;8.40;46.70;;;;;;5094615;28;19908;-63
2022/01/18 06:22:15;;;;;;;;;;;8.50;46.50;;;;;;5094468;28;20279;-63
2022/01/18 06:24:40;;;;;;;;;;;8.50;46.50;;;;;;5094270;28;19908;-62
2022/01/18 06:27:06;;;;;;;;;;;8.60;46.80;;;;;;5094308;28;19908;-63
2022/01/18 06:29:32;;;;;;;;;;;8.60;46.70;;;;;;5094110;28;19908;-61
2022/01/18 06:31:57;;;;;;;;;;;8.60;46.90;;;;;;5094150;28;20359;-67
2022/01/18 06:34:23;;;;;;;;;;;8.80;50.80;;;;;;5093871;28;20296;-68
2022/01/18 06:36:48;;;;;;;;;;;9.10;50.70;;;;;;5094082;28;19916;-65
2022/01/18 06:39:16;;;;;;;;;;;9.10;51.50;;;;;;5094060;28;19909;-63
2022/01/18 06:41:45;;;;;;;;;;;9.40;51.40;;;;;;5094105;28;19962;-67
2022/01/18 06:44:10;;;;;;;;;;;9.50;49.90;;;;;;5093299;28;19915;-70
2022/01/18 06:46:36;;;;;;;;;;;9.90;50.30;;;;;;5094241;28;19912;-70
2022/01/18 06:49:02;;;;;;;;;;;10.00;47.50;;;;;;5098930;28;20394;-64
2022/01/18 06:51:27;;;;;;;;;;;10.00;46.90;;;;;;5097694;28;19912;-64
2022/01/18 06:53:53;;;;;;;;;;;9.60;47.10;;;;;;5098588;28;19947;-68
2022/01/18 06:56:20;;;;;;;;;;;9.50;48.00;;;;;;5092806;28;19913;-66
2022/01/18 06:58:46;;;;;;;;;;;9.70;47.10;;;;;;5093631;28;19927;-64
2022/01/18 07:01:12;;;;;;;;;;;9.50;45.70;;;;;;5093594;28;20299;-63
2022/01/18 07:03:37;;;;;;;;;;;9.20;46.00;;;;;;5093658;28;19944;-65
2022/01/18 07:06:03;;;;;;;;;;;9.00;46.80;;;;;;5093301;28;19970;-63
2022/01/18 07:08:30;;;;;;;;;;;8.80;47.20;;;;;;5092763;28;19912;-62
2022/01/18 07:10:56;;;;;;;;;;;8.60;48.20;;;;;;5093002;28;19915;-65
2022/01/18 07:13:21;;;;;;;;;;;8.40;49.00;;;;;;5093247;28;19908;-61
2022/01/18 07:15:47;;;;;;;;;;;8.30;49.20;;;;;;5093190;28;19908;-64
2022/01/18 07:18:13;;;;;;;;;;;8.40;49.40;;;;;;5093136;28;19939;-64
2022/01/18 07:20:40;;;;;;;;;;;8.40;49.70;;;;;;5093304;28;19912;-64
2022/01/18 07:23:07;;;;;;;;;;;8.30;50.00;;;;;;5092794;28;19916;-63
2022/01/18 07:25:34;;;;;;;;;;;8.30;50.20;;;;;;5093261;28;19930;-64
2022/01/18 07:27:59;;;;;;;;;;;8.20;50.80;;;;;;5092812;28;20358;-63
2022/01/18 07:30:25;;;;;;;;;;;8.30;50.20;;;;;;5093227;28;19951;-65
2022/01/18 07:32:50;;;;;;;;;;;8.30;50.60;;;;;;5093358;28;20363;-64
2022/01/18 07:35:16;;;;;;;;;;;8.20;51.30;;;;;;5093061;28;19912;-62
2022/01/18 07:37:43;;;;;;;;;;;8.30;51.40;;;;;;5093214;28;19952;-60
2022/01/18 07:40:09;;;;;;;;;;;8.40;51.60;;;;;;5093223;28;19912;-61
2022/01/18 07:42:35;;;;;;;;;;;8.40;50.90;;;;;;5092941;28;19995;-63
2022/01/18 07:45:00;;;;;;;;;;;8.50;50.70;;;;;;5093187;28;19951;-59
2022/01/18 07:47:26;;;;;;;;;;;8.60;50.70;;;;;;5091906;28;19908;-60
2022/01/18 07:49:51;;;;;;;;;;;8.40;50.70;;;;;;5093444;28;20276;-61
2022/01/18 07:52:17;;;;;;;;;;;8.40;50.60;;;;;;5093278;28;19915;-61
2022/01/18 07:54:42;;;;;;;;;;;8.50;50.70;;;;;;5092917;28;19911;-60
2022/01/18 07:57:08;;;;;;;;;;;8.70;50.40;;;;;;5082059;28;20061;-60
2022/01/18 07:59:34;;;;;;;;;;;8.80;50.20;;;;;;5078011;28;19916;-59
2022/01/18 08:01:59;;;;;;;;;;;8.70;49.80;;;;;;5072758;28;19916;-63
2022/01/18 08:04:25;;;;;;;;;;;8.80;50.20;;;;;;5072670;28;19999;-61
2022/01/18 08:06:51;;;;;;;;;;;8.80;50.40;;;;;;5071759;28;19999;-60
2022/01/18 08:09:19;;;;;;;;;;;8.80;50.70;;;;;;5073339;28;19954;-61
2022/01/18 08:11:48;;;;;;;;;;;8.60;50.60;;;;;;5072981;28;20003;-60
2022/01/18 08:14:16;;;;;;;;;;;8.80;50.20;;;;;;5073151;28;19908;-59
2022/01/18 08:17:01;;;;;;;;;;;8.80;50.10;;;;;;5073008;28;19912;-59
2022/01/18 08:19:30;;;;;;;;;;;8.80;51.00;;;;;;5073238;28;19936;-60
2022/01/18 08:21:56;;;;;;;;;;;9.00;50.40;;;;;;5075646;28;19994;-59
2022/01/18 08:24:22;;;;;;;;;;;9.00;50.30;;;;;;5076442;28;19916;-60
2022/01/18 08:26:47;;;;;;;;;;;9.10;50.20;;;;;;5076853;28;19996;-61
2022/01/18 08:29:13;;;;;;;;;;;9.10;50.20;;;;;;5076522;28;19908;-61
2022/01/18 08:31:39;;;;;;;;;;;8.80;50.20;;;;;;5076787;28;19914;-63
2022/01/18 08:34:04;;;;;;;;;;;9.00;50.70;;;;;;5076543;28;20357;-62
2022/01/18 08:36:30;;;;;;;;;;;9.10;50.20;;;;;;5076637;28;19923;-61
2022/01/18 08:38:56;;;;;;;;;;;9.20;50.10;;;;;;5075256;28;19915;-61
2022/01/18 08:41:21;;;;;;;;;;;8.90;50.50;;;;;;5076854;28;19908;-62
2022/01/18 08:43:47;;;;;;;;;;;9.00;50.70;;;;;;5076585;28;20388;-62
2022/01/18 08:46:13;;;;;;;;;;;9.00;50.70;;;;;;5075181;28;20347;-61
2022/01/18 08:48:38;;;;;;;;;;;9.10;50.20;;;;;;5076348;28;19942;-62
2022/01/18 08:51:04;;;;;;;;;;;9.30;50.00;;;;;;5076372;28;20376;-62
2022/01/18 08:53:30;;;;;;;;;;;9.20;49.80;;;;;;5076170;28;20356;-62
2022/01/18 08:55:56;;;;;;;;;;;9.20;49.90;;;;;;5076513;28;19948;-62
2022/01/18 08:58:22;;;;;;;;;;;9.20;50.20;;;;;;5076264;28;20449;-60
2022/01/18 09:00:48;;;;;;;;;;;9.30;49.80;;;;;;5076066;28;19912;-61
2022/01/18 09:03:14;;;;;;;;;;;9.30;49.30;;;;;;5076279;28;19916;-61
2022/01/18 09:05:39;;;;;;;;;;;9.40;49.80;;;;;;5076167;28;20268;-61
2022/01/18 09:08:07;;;;;;;;;;;9.50;49.60;;;;;;5076075;28;19912;-62
2022/01/18 09:10:33;;;;;;;;;;;9.50;49.20;;;;;;5074839;28;20352;-62
2022/01/18 09:12:58;;;;;;;;;;;9.50;49.40;;;;;;5076072;28;19916;-62
2022/01/18 09:15:25;;;;;;;;;;;9.50;49.20;;;;;;5076015;28;20003;-62
2022/01/18 09:17:52;;;;;;;;;;;9.60;49.30;;;;;;5075881;28;19923;-62
2022/01/18 09:20:17;;;;;;;;;;;9.80;48.90;;;;;;5075834;28;20353;-61
2022/01/18 09:22:44;;;;;;;;;;;9.90;48.90;;;;;;5075863;28;19918;-61
2022/01/18 09:25:12;;;;;;;;;;;9.90;48.40;;;;;;5075499;28;20360;-61
2022/01/18 09:27:37;;;;;;;;;;;10.00;48.30;;;;;;5075901;28;19909;-60
2022/01/18 09:30:04;;;;;;;;;;;10.00;47.70;;;;;;5075798;28;20284;-61
2022/01/18 09:32:30;;;;;;;;;;;10.10;47.80;;;;;;5074503;28;19913;-66
2022/01/18 09:34:55;;;;;;;;;;;10.20;48.20;;;;;;5075596;28;19917;-66
2022/01/18 09:37:21;;;;;;;;;;;10.30;47.80;;;;;;5075341;28;20109;-65
2022/01/18 09:39:47;;;;;;;;;;;10.30;47.80;;;;;;5075663;28;19912;-68
2022/01/18 09:42:12;;;;;;;;;;;10.30;47.70;;;;;;5075459;28;19915;-64
2022/01/18 09:44:39;;;;;;;;;;;10.30;47.60;;;;;;5075273;28;20393;-67
2022/01/18 09:47:04;;;;;;;;;;;10.50;47.30;;;;;;5075779;28;19909;-67
2022/01/18 09:49:31;;;;;;;;;;;10.50;47.50;;;;;;5074112;28;20375;-64
2022/01/18 09:51:57;;;;;;;;;;;10.60;47.00;;;;;;5075394;28;19912;-64
2022/01/18 09:54:23;;;;;;;;;;;10.60;47.20;;;;;;5075215;28;19916;-62
2022/01/18 09:56:48;;;;;;;;;;;10.70;47.00;;;;;;5075013;28;19920;-66
2022/01/18 09:59:14;;;;;;;;;;;10.90;46.90;;;;;;5075114;28;19930;-68
2022/01/18 10:01:39;;;;;;;;;;;10.80;46.90;;;;;;5075185;28;19912;-65
2022/01/18 10:04:21;;;;;;;;;;;10.80;47.00;;;;;;5074937;28;19914;-65
2022/01/18 10:06:49;;;;;;;;;;;11.00;46.30;;;;;;5074765;28;19916;-65
2022/01/18 10:09:16;;;;;;;;;;;11.00;45.80;;;;;;5075115;28;19916;-64
2022/01/18 10:12:00;;;;;;;;;;;11.10;45.60;;;;;;5075354;28;19908;-64
2022/01/18 10:14:26;;;;;;;;;;;11.00;45.70;;;;;;5075010;28;20322;-65
2022/01/18 10:16:52;;;;;;;;;;;11.10;45.50;;;;;;5075216;28;19912;-64
2022/01/18 10:19:30;;;;;;;;;;;11.10;46.00;;;;;;5074871;28;19916;-65
2022/01/18 10:22:33;;;;;;;;;;;11.10;45.30;;;;;;5075367;28;20268;-64
2022/01/18 10:25:11;;;;;;;;;;;11.30;44.60;;;;;;5054389;28;19908;-66
2022/01/18 10:27:37;;;;;;;;;;;11.40;44.00;;;;;;5085967;28;19908;-68
2022/01/18 10:30:05;;;;;;;;;;;11.50;43.60;;;;;;5088036;28;19919;-68
2022/01/18 10:32:38;;;;;;;;;;;11.60;43.40;;;;;;5086486;28;19942;-68
2022/01/18 10:35:05;;;;;;;;;;;11.50;43.60;;;;;;5086937;28;19924;-65
2022/01/18 10:37:33;;;;;;;;;;;11.60;43.70;;;;;;5083084;28;20462;-66
2022/01/18 10:40:13;;;;;;;;;;;11.60;43.50;;;;;;5082790;28;19915;-65
2022/01/18 10:42:39;;;;;;;;;;;11.60;42.80;;;;;;5079275;28;19912;-65
2022/01/18 10:45:21;;;;;;;;;;;11.70;42.80;;;;;;5073807;28;19909;-65
2022/01/18 10:47:57;;;;;;;;;;;11.70;42.90;;;;;;5074250;28;20366;-65
2022/01/18 10:50:24;;;;;;;;;;;11.90;42.60;;;;;;5074468;28;19908;-65
2022/01/18 10:52:52;;;;;;;;;;;11.90;42.70;;;;;;5074206;28;19908;-65
2022/01/18 10:55:20;;;;;;;;;;;12.00;42.60;;;;;;5074191;28;20031;-64
2022/01/18 10:57:45;;;;;;;;;;;12.00;42.30;;;;;;5073205;28;19916;-66
2022/01/18 11:00:13;;;;;;;;;;;12.20;41.50;;;;;;5083054;28;20074;-67
2022/01/18 11:02:40;;;;;;;;;;;12.20;41.70;;;;;;5089864;28;19982;-65
2022/01/18 11:05:12;;;;;;;;;;;12.40;41.40;;;;;;5083043;28;19913;-66
2022/01/18 11:07:38;;;;;;;;;;;12.50;41.20;;;;;;5074175;28;19909;-63
2022/01/18 11:10:05;;;;;;;;;;;12.50;40.50;;;;;;5073898;28;19908;-66
2022/01/18 11:12:42;;;;;;;;;;;12.50;40.60;;;;;;5073721;28;19915;-66
2022/01/18 11:15:15;;;;;;;;;;;12.50;41.30;;;;;;5073604;28;19958;-65
2022/01/18 11:17:43;;;;;;;;;;;12.50;40.10;;;;;;5073620;28;20387;-65
2022/01/18 11:20:09;;;;;;;;;;;12.60;39.90;;;;;;5073503;28;19999;-66
2022/01/18 11:22:35;;;;;;;;;;;12.50;39.90;;;;;;5073634;28;19948;-66
2022/01/18 11:25:02;;;;;;;;;;;12.40;39.80;;;;;;5073487;28;19970;-64
2022/01/18 11:27:29;;;;;;;;;;;12.50;40.00;;;;;;5073288;28;20367;-68
2022/01/18 11:29:55;;;;;;;;;;;12.40;39.00;;;;;;5073376;28;19959;-65
2022/01/18 11:32:24;;;;;;;;;;;12.70;39.70;;;;;;5073026;28;20303;-65
2022/01/18 11:35:08;;;;;;;;;;;12.70;38.80;;;;;;5073247;28;19923;-65
2022/01/18 11:37:45;;;;;;;;;;;12.80;39.10;;;;;;5073311;28;19918;-64
2022/01/18 11:40:16;;;;;;;;;;;12.80;38.60;;;;;;5073210;28;19909;-67
2022/01/18 11:42:41;;;;;;;;;;;12.80;38.50;;;;;;5073411;28;20348;-65
2022/01/18 11:45:30;;;;;;;;;;;12.90;38.60;;;;;;5073187;28;19915;-63
2022/01/18 11:47:59;;;;;;;;;;;12.80;37.90;;;;;;5067689;28;20001;-66
2022/01/18 11:50:29;;;;;;;;;;;12.90;38.00;;;;;;5073194;28;20000;-63
2022/01/18 11:53:25;;;;;;;;;;;12.90;37.50;;;;;;5073174;28;20372;-65
2022/01/18 11:56:00;;;;;;;;;;;13.00;37.30;;;;;;5075831;28;19932;-64
2022/01/18 11:58:26;;;;;;;;;;;13.10;36.80;;;;;;5077227;28;20330;-62
2022/01/18 12:00:57;;;;;;;;;;;13.00;37.10;;;;;;5077350;28;19916;-61
2022/01/18 12:03:27;;;;;;;;;;;13.00;36.70;;;;;;5077245;28;20003;-63
2022/01/18 12:05:57;;;;;;;;;;;13.00;36.20;;;;;;5077284;28;19916;-64
2022/01/18 12:08:29;;;;;;;;;;;13.00;36.40;;;;;;5077113;28;20502;-63
2022/01/18 12:10:54;;;;;;;;;;;13.10;36.70;;;;;;5076999;28;19940;-70
2022/01/18 12:13:27;;;;;;;;;;;13.10;36.60;;;;;;5077189;28;19913;-67
2022/01/18 12:15:56;;;;;;;;;;;13.20;37.00;;;;;;5077158;28;20023;-62
2022/01/18 12:18:23;;;;;;;;;;;13.20;36.10;;;;;;5076841;28;19950;-61
2022/01/18 12:20:53;;;;;;;;;;;13.30;35.60;;;;;;5076733;28;20320;-68
2022/01/18 12:23:19;;;;;;;;;;;13.20;36.50;;;;;;5076386;28;20011;-63
2022/01/18 12:26:14;;;;;;;;;;;13.30;36.00;;;;;;5076809;28;20056;-70
2022/01/18 12:34:24;;;;;;;;;;;13.60;34.90;;;;;;5076146;28;20369;-68
2022/01/18 12:36:54;;;;;;;;;;;13.70;35.00;;;;;;5076426;28;20356;-63
2022/01/18 12:39:20;;;;;;;;;;;13.70;34.10;;;;;;5076200;28;20447;-62
2022/01/18 12:41:48;;;;;;;;;;;13.70;33.80;;;;;;5076223;28;19950;-73
2022/01/18 12:44:22;;;;;;;;;;;13.80;34.10;;;;;;5076152;28;19908;-70
2022/01/18 12:46:55;;;;;;;;;;;13.80;33.80;;;;;;5076162;28;20299;-65
2022/01/18 12:49:21;;;;;;;;;;;13.80;33.80;;;;;;5076555;28;19909;-71
2022/01/18 12:51:54;;;;;;;;;;;13.80;33.50;;;;;;5075926;28;20361;-73
2022/01/18 12:54:19;;;;;;;;;;;13.90;33.70;;;;;;5076051;28;19915;-70
2022/01/18 12:56:45;;;;;;;;;;;13.90;33.00;;;;;;5076037;28;19917;-71
2022/01/18 12:59:10;;;;;;;;;;;13.80;33.20;;;;;;5075876;28;19909;-73
2022/01/18 13:01:37;;;;;;;;;;;13.80;33.00;;;;;;5075665;28;19908;-70
2022/01/18 13:04:06;;;;;;;;;;;13.80;32.10;;;;;;5075811;28;19909;-70
2022/01/18 13:06:33;;;;;;;;;;;13.80;31.60;;;;;;5075023;28;19909;-72
2022/01/18 13:09:00;;;;;;;;;;;14.00;33.10;;;;;;5075452;28;19912;-67
2022/01/18 13:11:27;;;;;;;;;;;13.80;33.60;;;;;;5075870;28;20003;-68
2022/01/18 13:14:02;;;;;;;;;;;13.80;34.40;;;;;;5075546;28;19908;-69
2022/01/18 13:25:04;;;;;;;;;;;14.10;35.20;;;;;;5075380;28;19927;-67
2022/01/18 13:27:42;;;;;;;;;;;14.20;35.70;;;;;;5075155;28;19978;-64
2022/01/18 13:30:21;;;;;;;;;;;14.20;36.60;;;;;;5075390;28;19948;-64
2022/01/18 13:32:47;;;;;;;;;;;14.30;37.70;;;;;;5075047;28;20701;-61
2022/01/18 13:35:15;;;;;;;;;;;14.40;37.90;;;;;;5075321;28;19916;-65
2022/01/18 13:37:40;;;;;;;;;;;14.40;38.40;;;;;;5075007;28;19916;-62
2022/01/18 13:40:08;;;;;;;;;;;14.30;38.70;;;;;;5073710;28;20383;-62
2022/01/18 13:42:35;;;;;;;;;;;14.30;38.70;;;;;;5074874;28;19915;-65
2022/01/18 13:45:19;;;;;;;;;;;14.20;38.80;;;;;;5074840;28;20328;-62
2022/01/18 13:48:00;;;;;;;;;;;14.00;39.00;;;;;;5074738;28;19915;-64
2022/01/18 13:50:30;;;;;;;;;;;14.00;39.10;;;;;;5075203;28;19916;-64
2022/01/18 13:52:57;;;;;;;;;;;13.90;39.60;;;;;;5074823;28;19940;-69
2022/01/18 13:55:27;;;;;;;;;;;13.70;40.70;;;;;;5074742;28;19909;-69
2022/01/18 13:57:59;;;;;;;;;;;13.50;41.00;;;;;;5074903;28;19916;-64
2022/01/18 14:00:25;;;;;;;;;;;13.50;41.50;;;;;;5074868;28;20364;-66
2022/01/18 14:02:51;;;;;;;;;;;13.40;41.10;;;;;;5074601;28;19909;-67
2022/01/18 14:05:20;;;;;;;;;;;13.40;41.40;;;;;;5072815;28;19916;-67
2022/01/18 14:07:46;;;;;;;;;;;13.30;41.70;;;;;;5075106;28;19908;-67
2022/01/18 14:10:11;;;;;;;;;;;13.30;42.20;;;;;;5074843;28;19908;-67
2022/01/18 14:12:37;;;;;;;;;;;13.30;42.40;;;;;;5074990;28;20345;-67
2022/01/18 14:15:02;;;;;;;;;;;13.30;42.70;;;;;;5074751;28;19908;-66
2022/01/18 14:17:28;;;;;;;;;;;13.20;43.20;;;;;;5074969;28;19992;-59
2022/01/18 14:20:02;;;;;;;;;;;13.10;43.30;;;;;;5075356;28;19956;-64
2022/01/18 14:22:28;;;;;;;;;;;13.10;42.40;;;;;;5074817;28;19920;-65
2022/01/18 14:24:58;;;;;;;;;;;13.10;42.80;;;;;;5075642;28;19912;-65
2022/01/18 14:27:25;;;;;;;;;;;12.90;42.10;;;;;;5078995;28;19916;-62
2022/01/18 14:29:52;;;;;;;;;;;12.70;43.50;;;;;;5087087;28;19912;-62
2022/01/18 14:32:22;;;;;;;;;;;12.50;42.50;;;;;;5087799;28;19912;-63
2022/01/18 14:34:49;;;;;;;;;;;12.40;42.80;;;;;;5088912;28;19929;-63
2022/01/18 14:37:15;;;;;;;;;;;12.40;42.40;;;;;;5086413;28;19924;-62
2022/01/18 14:40:07;;;;;;;;;;;12.30;40.90;;;;;;5083065;28;19909;-63
2022/01/18 14:42:41;;;;;;;;;;;12.40;41.50;;;;;;5071024;28;19909;-63
2022/01/18 14:45:19;;;;;;;;;;;12.50;40.70;;;;;;5074607;28;19909;-62
2022/01/18 14:47:45;;;;;;;;;;;12.50;40.50;;;;;;5073863;28;19909;-63
2022/01/18 14:50:16;;;;;;;;;;;12.30;42.90;;;;;;5074039;28;19916;-61
2022/01/18 14:52:41;;;;;;;;;;;12.30;43.30;;;;;;5072618;28;19913;-63
2022/01/18 14:55:07;;;;;;;;;;;12.30;43.60;;;;;;5074074;28;19970;-61
2022/01/18 14:57:34;;;;;;;;;;;12.10;44.80;;;;;;5076004;28;19924;-65
2022/01/18 14:59:59;;;;;;;;;;;12.00;46.20;;;;;;5093506;28;19912;-62
2022/01/18 15:02:25;;;;;;;;;;;11.80;47.30;;;;;;5098287;28;19938;-64
2022/01/18 15:04:51;;;;;;;;;;;11.60;47.90;;;;;;5081386;28;19916;-65
2022/01/18 15:07:17;;;;;;;;;;;11.40;48.90;;;;;;5090195;28;19935;-62
2022/01/18 15:09:42;;;;;;;;;;;11.30;49.70;;;;;;5080691;28;19936;-61
2022/01/18 15:12:08;;;;;;;;;;;11.30;50.50;;;;;;5078271;28;20326;-62
2022/01/18 15:14:34;;;;;;;;;;;11.30;50.70;;;;;;5073360;28;20379;-59
2022/01/18 15:17:00;;;;;;;;;;;11.20;50.90;;;;;;5074605;28;19916;-63
2022/01/18 15:19:26;;;;;;;;;;;11.00;51.80;;;;;;5072272;28;20026;-66
2022/01/18 15:21:52;;;;;;;;;;;11.10;53.00;;;;;;5073783;28;19931;-67
2022/01/18 15:24:18;;;;;;;;;;;11.10;53.80;;;;;;5073720;28;19912;-63
2022/01/18 15:26:43;;;;;;;;;;;11.00;53.70;;;;;;5073449;28;19909;-61
2022/01/18 15:29:09;;;;;;;;;;;10.90;54.50;;;;;;5073280;28;20013;-67
2022/01/18 15:31:34;;;;;;;;;;;10.70;55.40;;;;;;5071700;28;19912;-63
2022/01/18 15:34:01;;;;;;;;;;;10.70;56.00;;;;;;5072702;28;19925;-63
2022/01/18 15:36:26;;;;;;;;;;;10.60;56.80;;;;;;5073425;28;19952;-64
2022/01/18 15:38:52;;;;;;;;;;;10.60;57.90;;;;;;5072221;28;20394;-64
2022/01/18 15:41:18;;;;;;;;;;;10.50;57.60;;;;;;5073684;28;19909;-63
2022/01/18 15:43:43;;;;;;;;;;;10.50;58.40;;;;;;5072165;28;19935;-63
2022/01/18 15:46:09;;;;;;;;;;;10.50;58.10;;;;;;5073275;28;19912;-63
2022/01/18 15:48:35;;;;;;;;;;;10.50;57.20;;;;;;5073380;28;19954;-65
2022/01/18 15:51:01;;;;;;;;;;;10.50;56.70;;;;;;5073521;28;19908;-65
2022/01/18 15:53:26;;;;;;;;;;;10.70;56.20;;;;;;5073121;28;19991;-64
2022/01/18 15:55:53;;;;;;;;;;;10.50;56.10;;;;;;5072126;28;19908;-63
2022/01/18 15:58:19;;;;;;;;;;;10.50;56.40;;;;;;5073538;28;19943;-64
2022/01/18 16:00:45;;;;;;;;;;;10.60;56.90;;;;;;5073138;28;19961;-63